Time;durP1;ratioP1;P1;durP2;ratioP2;P2;SDS_P1;SDS_P2;PMS_P1;PMS_P2;Temp;Humidity;BMP_temperature;BMP_pressure;BME280_temperature;BME280_humidity;BME280_pressure;Samples;Min_cycle;Max_cycle;Signal;HPM_P1;HPM_P2
2023/06/10 00:01:18;;;;;;;9.85;7.35;;;;;;;;;;5024298;28;20040;-69
2023/06/10 00:03:43;;;;;;;11.40;7.57;;;;;;;;;;5025063;28;20045;-70
2023/06/10 00:06:09;;;;;;;12.15;7.70;;;;;;;;;;5026786;28;20112;-70
2023/06/10 00:08:34;;;;;;;9.98;8.00;;;;;;;;;;5026270;28;20021;-70
2023/06/10 00:11:00;;;;;;;10.73;7.47;;;;;;;;;;5022854;28;20037;-69
2023/06/10 00:13:25;;;;;;;8.57;7.05;;;;;;;;;;5021772;28;20057;-70
2023/06/10 00:15:51;;;;;;;8.68;6.97;;;;;;;;;;5025867;28;20108;-70
2023/06/10 00:18:17;;;;;;;12.73;7.38;;;;;;;;;;5026705;28;20083;-70
2023/06/10 00:20:42;;;;;;;11.80;7.50;;;;;;;;;;5026023;28;20017;-70
2023/06/10 00:23:09;;;;;;;10.25;6.97;;;;;;;;;;5026283;28;20139;-69
2023/06/10 00:25:34;;;;;;;8.73;7.07;;;;;;;;;;5026486;28;20083;-70
2023/06/10 00:28:00;;;;;;;9.57;7.40;;;;;;;;;;5025726;28;20499;-70
2023/06/10 00:30:26;;;;;;;9.15;7.40;;;;;;;;;;5026434;28;20030;-69
2023/06/10 00:32:51;;;;;;;10.75;7.45;;;;;;;;;;5025274;28;20025;-70
2023/06/10 00:35:16;;;;;;;9.57;7.65;;;;;;;;;;5025331;28;20024;-70
2023/06/10 00:37:42;;;;;;;10.85;7.50;;;;;;;;;;5027796;28;20029;-70
2023/06/10 00:40:10;;;;;;;8.88;7.07;;;;;;;;;;5032462;28;20083;-70
2023/06/10 00:42:36;;;;;;;9.77;7.57;;;;;;;;;;5034383;28;20036;-70
2023/06/10 00:45:01;;;;;;;10.52;7.65;;;;;;;;;;5026750;28;20017;-70
2023/06/10 00:47:27;;;;;;;9.77;7.40;;;;;;;;;;5024471;28;20037;-70
2023/06/10 00:49:53;;;;;;;10.77;8.05;;;;;;;;;;5025093;28;20087;-70
2023/06/10 00:52:20;;;;;;;12.63;7.88;;;;;;;;;;5014453;28;20036;-70
2023/06/10 00:54:46;;;;;;;11.88;8.38;;;;;;;;;;5020328;28;20107;-70
2023/06/10 00:57:13;;;;;;;10.70;8.13;;;;;;;;;;5025747;28;20056;-69
2023/06/10 00:59:40;;;;;;;11.52;7.55;;;;;;;;;;5025942;28;20040;-70
2023/06/10 01:02:07;;;;;;;10.75;8.05;;;;;;;;;;5025544;28;20075;-69
2023/06/10 01:04:32;;;;;;;10.20;7.43;;;;;;;;;;5024378;28;20044;-69
2023/06/10 01:07:16;;;;;;;17.33;8.38;;;;;;;;;;5025752;28;20065;-69
2023/06/10 01:09:48;;;;;;;11.48;7.95;;;;;;;;;;5024100;28;20075;-70
2023/06/10 01:12:56;;;;;;;15.80;7.65;;;;;;;;;;5024318;28;20033;-70
2023/06/10 01:15:22;;;;;;;10.68;7.50;;;;;;;;;;5022991;28;20120;-70
2023/06/10 01:18:08;;;;;;;10.35;7.65;;;;;;;;;;5025877;28;20022;-70
2023/06/10 01:20:36;;;;;;;9.02;7.50;;;;;;;;;;5025581;28;20112;-70
2023/06/10 01:23:02;;;;;;;10.90;7.68;;;;;;;;;;5023320;28;20079;-70
2023/06/10 01:25:32;;;;;;;10.00;7.45;;;;;;;;;;5022949;28;20032;-70
2023/06/10 01:28:09;;;;;;;10.90;7.90;;;;;;;;;;5024224;28;20083;-70
2023/06/10 01:31:16;;;;;;;10.15;7.45;;;;;;;;;;5024896;28;20652;-69
2023/06/10 01:33:45;;;;;;;10.50;7.93;;;;;;;;;;5025291;28;20025;-70
2023/06/10 01:36:12;;;;;;;12.95;7.53;;;;;;;;;;5025009;28;20493;-70
2023/06/10 01:38:40;;;;;;;10.13;7.82;;;;;;;;;;5025057;28;20030;-70
2023/06/10 01:41:06;;;;;;;12.63;8.02;;;;;;;;;;5024762;28;20445;-69
2023/06/10 01:43:37;;;;;;;9.27;7.80;;;;;;;;;;5025045;28;20041;-70
2023/06/10 01:46:02;;;;;;;12.55;8.05;;;;;;;;;;5025376;28;20510;-70
2023/06/10 01:48:27;;;;;;;11.20;8.27;;;;;;;;;;5024693;28;20070;-69
2023/06/10 01:50:54;;;;;;;15.60;8.00;;;;;;;;;;5025516;28;20029;-70
2023/06/10 01:53:20;;;;;;;10.20;7.78;;;;;;;;;;5023274;28;20056;-69
2023/06/10 01:55:45;;;;;;;9.82;8.10;;;;;;;;;;5022934;28;20498;-69
2023/06/10 01:58:10;;;;;;;12.80;8.48;;;;;;;;;;5018235;28;20561;-70
2023/06/10 02:00:36;;;;;;;13.32;7.93;;;;;;;;;;5021239;28;20627;-70
2023/06/10 02:03:01;;;;;;;10.20;7.82;;;;;;;;;;5024802;28;20511;-69
2023/06/10 02:05:26;;;;;;;9.68;7.72;;;;;;;;;;5025886;28;20021;-69
2023/06/10 02:07:51;;;;;;;11.05;8.05;;;;;;;;;;5032748;28;20037;-69
2023/06/10 02:10:17;;;;;;;11.02;8.13;;;;;;;;;;5034066;28;20093;-69
2023/06/10 02:12:42;;;;;;;10.60;7.72;;;;;;;;;;5026073;28;20026;-70
2023/06/10 02:15:07;;;;;;;10.60;8.10;;;;;;;;;;5021448;28;20051;-70
2023/06/10 02:17:33;;;;;;;12.43;8.00;;;;;;;;;;5029491;28;20040;-70
2023/06/10 02:19:59;;;;;;;11.73;8.40;;;;;;;;;;5024899;28;20034;-69
2023/06/10 02:22:25;;;;;;;12.50;8.02;;;;;;;;;;5023389;28;20033;-70
2023/06/10 02:24:50;;;;;;;11.23;8.35;;;;;;;;;;5023979;28;20096;-70
2023/06/10 02:27:16;;;;;;;10.57;7.85;;;;;;;;;;5024401;28;20119;-70
2023/06/10 02:29:43;;;;;;;14.35;8.95;;;;;;;;;;5025996;28;20033;-70
2023/06/10 02:32:08;;;;;;;11.93;8.32;;;;;;;;;;5024394;28;20029;-70
2023/06/10 02:34:34;;;;;;;14.40;9.10;;;;;;;;;;5024323;28;20017;-70
2023/06/10 02:37:00;;;;;;;11.82;8.85;;;;;;;;;;5024705;28;20025;-70
2023/06/10 02:39:26;;;;;;;12.35;8.48;;;;;;;;;;5024744;28;20022;-70
2023/06/10 02:41:51;;;;;;;12.63;8.70;;;;;;;;;;5024665;28;20033;-70
2023/06/10 02:44:17;;;;;;;13.73;9.20;;;;;;;;;;5023661;28;20045;-69
2023/06/10 02:46:43;;;;;;;12.82;9.40;;;;;;;;;;5024562;28;20091;-69
2023/06/10 02:49:08;;;;;;;10.20;8.25;;;;;;;;;;5024984;28;20026;-69
2023/06/10 02:51:33;;;;;;;14.02;8.73;;;;;;;;;;5025755;28;20064;-69
2023/06/10 02:53:59;;;;;;;12.32;8.45;;;;;;;;;;5026946;28;20025;-69
2023/06/10 02:56:25;;;;;;;14.32;9.48;;;;;;;;;;5028458;28;20025;-69
2023/06/10 02:58:51;;;;;;;12.50;8.95;;;;;;;;;;5028160;28;20769;-70
2023/06/10 03:01:18;;;;;;;12.38;8.77;;;;;;;;;;5028000;28;20060;-69
2023/06/10 03:03:44;;;;;;;14.05;9.52;;;;;;;;;;5028530;28;20050;-70
2023/06/10 03:06:13;;;;;;;11.77;9.07;;;;;;;;;;5027674;28;20036;-69
2023/06/10 03:08:39;;;;;;;13.40;8.98;;;;;;;;;;5027770;28;20032;-69
2023/06/10 03:11:04;;;;;;;12.10;9.00;;;;;;;;;;5028015;28;20034;-69
2023/06/10 03:13:31;;;;;;;15.13;9.15;;;;;;;;;;5015158;28;20050;-69
2023/06/10 03:15:57;;;;;;;12.90;8.98;;;;;;;;;;5028122;28;20033;-69
2023/06/10 03:18:27;;;;;;;12.57;8.70;;;;;;;;;;5028521;28;20091;-69
2023/06/10 03:20:53;;;;;;;12.43;9.05;;;;;;;;;;5026900;28;20544;-69
2023/06/10 03:23:18;;;;;;;15.05;8.93;;;;;;;;;;5026655;28;20163;-69
2023/06/10 03:25:44;;;;;;;16.58;9.27;;;;;;;;;;5027635;28;20458;-70
2023/06/10 03:28:10;;;;;;;11.88;9.20;;;;;;;;;;5027619;28;20028;-70
2023/06/10 03:30:35;;;;;;;11.50;8.75;;;;;;;;;;5026930;28;20029;-69
2023/06/10 03:33:01;;;;;;;14.23;9.32;;;;;;;;;;5029595;28;20124;-69
2023/06/10 03:35:26;;;;;;;14.15;9.63;;;;;;;;;;5035374;28;20044;-69
2023/06/10 03:37:52;;;;;;;12.18;8.82;;;;;;;;;;5033437;28;20061;-69
2023/06/10 03:40:17;;;;;;;13.50;9.07;;;;;;;;;;5027890;28;20113;-69
2023/06/10 03:42:43;;;;;;;14.38;9.30;;;;;;;;;;5025427;28;20049;-69
2023/06/10 03:45:09;;;;;;;11.57;9.15;;;;;;;;;;5026819;28;20040;-70
2023/06/10 03:47:38;;;;;;;13.70;9.38;;;;;;;;;;5027113;28;20025;-69
2023/06/10 03:50:04;;;;;;;13.18;9.30;;;;;;;;;;5027723;28;20112;-69
2023/06/10 03:52:30;;;;;;;12.65;9.48;;;;;;;;;;5025202;28;20133;-70
2023/06/10 03:54:55;;;;;;;13.45;9.00;;;;;;;;;;5027173;28;20970;-69
2023/06/10 03:57:21;;;;;;;12.55;8.65;;;;;;;;;;5027421;28;20025;-70
2023/06/10 03:59:46;;;;;;;13.05;9.13;;;;;;;;;;5026293;28;20534;-70
2023/06/10 04:02:11;;;;;;;12.00;8.80;;;;;;;;;;5026329;28;20052;-69
2023/06/10 04:04:37;;;;;;;12.43;9.40;;;;;;;;;;5026268;28;20408;-69
2023/06/10 04:07:03;;;;;;;11.63;9.05;;;;;;;;;;5025340;28;20041;-69
2023/06/10 04:09:29;;;;;;;14.50;9.75;;;;;;;;;;5027154;28;20075;-69
2023/06/10 04:11:54;;;;;;;13.02;9.13;;;;;;;;;;5026241;28;20053;-69
2023/06/10 04:14:19;;;;;;;12.73;8.77;;;;;;;;;;5027036;28;20076;-69
2023/06/10 04:16:45;;;;;;;15.05;9.70;;;;;;;;;;5025993;28;20021;-69
2023/06/10 04:19:10;;;;;;;15.23;9.68;;;;;;;;;;5026740;28;20022;-69
2023/06/10 04:21:35;;;;;;;22.13;18.27;;;;;;;;;;5026528;28;20022;-70
2023/06/10 04:24:01;;;;;;;17.52;12.52;;;;;;;;;;5026198;28;20023;-69
2023/06/10 04:26:27;;;;;;;15.88;12.05;;;;;;;;;;5026545;28;20032;-70
2023/06/10 04:28:52;;;;;;;20.60;11.68;;;;;;;;;;5026525;28;20028;-70
2023/06/10 04:31:18;;;;;;;15.05;10.98;;;;;;;;;;5024800;28;20454;-69
2023/06/10 04:33:43;;;;;;;14.73;10.88;;;;;;;;;;5024192;28;20021;-69
2023/06/10 04:36:09;;;;;;;13.27;9.57;;;;;;;;;;5026818;28;20501;-69
2023/06/10 04:38:34;;;;;;;11.65;9.25;;;;;;;;;;5025695;28;20029;-70
2023/06/10 04:40:59;;;;;;;15.73;9.68;;;;;;;;;;5026040;28;20517;-69
2023/06/10 04:43:25;;;;;;;12.68;9.27;;;;;;;;;;5026447;28;20409;-70
2023/06/10 04:45:50;;;;;;;14.65;9.50;;;;;;;;;;5024640;28;20021;-70
2023/06/10 04:48:15;;;;;;;16.10;9.95;;;;;;;;;;5026389;28;20025;-69
2023/06/10 04:50:41;;;;;;;12.57;9.73;;;;;;;;;;5025671;28;20040;-70
2023/06/10 04:53:06;;;;;;;14.65;9.80;;;;;;;;;;5025989;28;20026;-70
2023/06/10 04:55:33;;;;;;;11.82;9.13;;;;;;;;;;5026350;28;20026;-69
2023/06/10 04:57:58;;;;;;;13.55;9.93;;;;;;;;;;5026645;28;20032;-69
2023/06/10 05:00:24;;;;;;;13.32;9.88;;;;;;;;;;5030309;28;20025;-69
2023/06/10 05:02:49;;;;;;;14.10;9.88;;;;;;;;;;5033512;28;20049;-70
2023/06/10 05:05:16;;;;;;;12.85;9.10;;;;;;;;;;5031187;28;20029;-69
2023/06/10 05:07:42;;;;;;;13.57;9.02;;;;;;;;;;5020943;28;20051;-70
2023/06/10 05:10:07;;;;;;;12.82;9.48;;;;;;;;;;5021312;28;20672;-70
2023/06/10 05:12:33;;;;;;;15.90;10.27;;;;;;;;;;5025564;28;20192;-69
2023/06/10 05:14:58;;;;;;;14.27;9.38;;;;;;;;;;5025481;28;20155;-70
2023/06/10 05:17:25;;;;;;;14.75;10.07;;;;;;;;;;5025440;28;20087;-69
2023/06/10 05:19:50;;;;;;;13.57;9.32;;;;;;;;;;5023883;28;20041;-70
2023/06/10 05:22:17;;;;;;;14.98;9.68;;;;;;;;;;5025234;28;20036;-69
2023/06/10 05:24:43;;;;;;;11.15;8.93;;;;;;;;;;5025514;28;20124;-69
2023/06/10 05:27:09;;;;;;;12.50;9.20;;;;;;;;;;5016027;28;20093;-69
2023/06/10 05:29:34;;;;;;;14.10;9.68;;;;;;;;;;5025194;28;20025;-70
2023/06/10 05:32:02;;;;;;;15.40;9.50;;;;;;;;;;5024440;28;20026;-70
2023/06/10 05:34:29;;;;;;;13.57;9.70;;;;;;;;;;5023881;28;20727;-70
2023/06/10 05:36:54;;;;;;;13.13;9.57;;;;;;;;;;5024926;28;20025;-70
2023/06/10 05:39:19;;;;;;;13.75;9.80;;;;;;;;;;5024798;28;20413;-70
2023/06/10 05:41:45;;;;;;;13.75;9.50;;;;;;;;;;5025002;28;20030;-69
2023/06/10 05:44:11;;;;;;;14.50;9.20;;;;;;;;;;5025094;28;20457;-70
2023/06/10 05:46:36;;;;;;;12.93;9.57;;;;;;;;;;5023648;28;20037;-69
2023/06/10 05:49:01;;;;;;;13.70;9.68;;;;;;;;;;5024916;28;20024;-69
2023/06/10 05:51:28;;;;;;;13.02;9.68;;;;;;;;;;5024723;28;20029;-70
2023/06/10 05:53:54;;;;;;;14.00;9.80;;;;;;;;;;5025407;28;20029;-69
2023/06/10 05:56:21;;;;;;;12.75;9.60;;;;;;;;;;5025277;28;20033;-69
2023/06/10 05:58:46;;;;;;;14.20;9.45;;;;;;;;;;5024152;28;20403;-69
2023/06/10 06:01:12;;;;;;;13.02;9.23;;;;;;;;;;5016684;28;20483;-69
2023/06/10 06:03:37;;;;;;;14.35;9.57;;;;;;;;;;5009425;28;20054;-69
2023/06/10 06:06:03;;;;;;;15.45;10.13;;;;;;;;;;5022450;28;20040;-70
2023/06/10 06:08:29;;;;;;;14.80;10.07;;;;;;;;;;5025496;28;20036;-70
2023/06/10 06:10:54;;;;;;;12.85;9.57;;;;;;;;;;5020115;28;20030;-69
2023/06/10 06:13:20;;;;;;;11.50;9.43;;;;;;;;;;5011844;28;20038;-70
2023/06/10 06:15:45;;;;;;;14.07;10.13;;;;;;;;;;5022458;28;20037;-70
2023/06/10 06:18:10;;;;;;;15.88;10.07;;;;;;;;;;5024224;28;20032;-70
2023/06/10 06:20:35;;;;;;;12.68;9.50;;;;;;;;;;5021358;28;20044;-69
2023/06/10 06:23:01;;;;;;;13.60;8.95;;;;;;;;;;5023790;28;20032;-69
2023/06/10 06:25:26;;;;;;;13.45;9.40;;;;;;;;;;5024663;28;20029;-69
2023/06/10 06:27:52;;;;;;;15.55;9.65;;;;;;;;;;5032599;28;20081;-69
2023/06/10 06:30:17;;;;;;;13.50;9.10;;;;;;;;;;5039773;28;20029;-69
2023/06/10 06:32:42;;;;;;;15.30;8.75;;;;;;;;;;5031861;28;20073;-70
2023/06/10 06:35:08;;;;;;;17.10;10.18;;;;;;;;;;5022161;28;20108;-69
2023/06/10 06:37:34;;;;;;;19.67;10.02;;;;;;;;;;5025556;28;20032;-69
2023/06/10 06:39:59;;;;;;;13.32;9.32;;;;;;;;;;5028232;28;20029;-69
2023/06/10 06:42:24;;;;;;;14.98;8.75;;;;;;;;;;5028218;28;20039;-69
2023/06/10 06:44:50;;;;;;;14.88;9.57;;;;;;;;;;5028040;28;20083;-69
2023/06/10 06:47:19;;;;;;;15.98;9.38;;;;;;;;;;5029226;28;20021;-70
2023/06/10 06:49:45;;;;;;;18.63;10.68;;;;;;;;;;5025042;28;20124;-70
2023/06/10 06:52:10;;;;;;;19.73;9.85;;;;;;;;;;5028939;28;20108;-70
2023/06/10 06:54:36;;;;;;;26.45;11.82;;;;;;;;;;5027977;28;20116;-69
2023/06/10 06:57:02;;;;;;;15.50;9.35;;;;;;;;;;5025523;28;20294;-70
2023/06/10 06:59:27;;;;;;;12.73;8.88;;;;;;;;;;5027000;28;20091;-70
2023/06/10 07:01:54;;;;;;;13.02;8.77;;;;;;;;;;5026117;28;20030;-70
2023/06/10 07:04:21;;;;;;;10.80;8.65;;;;;;;;;;5024721;28;20049;-70
2023/06/10 07:06:47;;;;;;;12.90;8.95;;;;;;;;;;5010630;28;20112;-70
2023/06/10 07:09:13;;;;;;;17.13;8.77;;;;;;;;;;5012203;28;20112;-70
2023/06/10 07:11:38;;;;;;;22.67;12.65;;;;;;;;;;5010765;28;20037;-70
2023/06/10 07:14:03;;;;;;;17.67;11.73;;;;;;;;;;5025163;28;20037;-70
2023/06/10 07:16:29;;;;;;;12.30;8.65;;;;;;;;;;5025001;28;20483;-70
2023/06/10 07:18:54;;;;;;;13.45;8.52;;;;;;;;;;5023340;28;20045;-70
2023/06/10 07:21:20;;;;;;;13.88;8.73;;;;;;;;;;5017615;28;20033;-70
2023/06/10 07:23:46;;;;;;;11.63;8.90;;;;;;;;;;5025011;28;20053;-70
2023/06/10 07:26:13;;;;;;;11.02;8.82;;;;;;;;;;5020836;28;20033;-70
2023/06/10 07:28:39;;;;;;;13.93;8.27;;;;;;;;;;5013921;28;20018;-69
2023/06/10 07:31:05;;;;;;;12.93;9.15;;;;;;;;;;5027383;28;20025;-70
2023/06/10 07:33:30;;;;;;;11.15;8.38;;;;;;;;;;5024501;28;20030;-70
2023/06/10 07:35:55;;;;;;;11.68;8.68;;;;;;;;;;5028526;28;20037;-70
2023/06/10 07:38:21;;;;;;;11.60;8.07;;;;;;;;;;5026814;28;20037;-70
2023/06/10 07:40:46;;;;;;;10.27;8.32;;;;;;;;;;5024665;28;20093;-70
2023/06/10 07:43:12;;;;;;;12.43;8.68;;;;;;;;;;5027236;28;20147;-70
2023/06/10 07:45:39;;;;;;;11.75;8.45;;;;;;;;;;5027188;28;20068;-70
2023/06/10 07:48:05;;;;;;;12.18;7.95;;;;;;;;;;5025749;28;20531;-70
2023/06/10 07:50:30;;;;;;;10.82;8.45;;;;;;;;;;5027774;28;20087;-70
2023/06/10 07:52:55;;;;;;;10.48;8.40;;;;;;;;;;5029013;28;20040;-70
2023/06/10 07:55:21;;;;;;;10.05;8.07;;;;;;;;;;5035739;28;20060;-70
2023/06/10 07:57:46;;;;;;;9.57;8.27;;;;;;;;;;5032889;28;20029;-70
2023/06/10 08:00:12;;;;;;;10.30;8.15;;;;;;;;;;5027498;28;20033;-70
2023/06/10 08:02:37;;;;;;;13.63;8.38;;;;;;;;;;5025467;28;20053;-70
2023/06/10 08:05:03;;;;;;;11.50;8.05;;;;;;;;;;5015454;28;20029;-70
2023/06/10 08:07:28;;;;;;;11.07;7.90;;;;;;;;;;5022922;28;20057;-70
2023/06/10 08:09:53;;;;;;;9.50;7.95;;;;;;;;;;5023743;28;20152;-70
2023/06/10 08:12:20;;;;;;;10.32;7.68;;;;;;;;;;5015288;28;20029;-70
2023/06/10 08:14:45;;;;;;;10.85;7.88;;;;;;;;;;5021483;28;20029;-70
2023/06/10 08:17:11;;;;;;;10.00;8.10;;;;;;;;;;5015992;28;20639;-70
2023/06/10 08:19:36;;;;;;;8.95;7.55;;;;;;;;;;5012980;28;20036;-70
2023/06/10 08:22:01;;;;;;;9.88;7.70;;;;;;;;;;5013361;28;20115;-70
2023/06/10 08:24:27;;;;;;;11.32;8.60;;;;;;;;;;5011390;28;20147;-70
2023/06/10 08:26:52;;;;;;;10.27;7.72;;;;;;;;;;5018659;28;20126;-70
2023/06/10 08:29:17;;;;;;;11.23;7.80;;;;;;;;;;5024046;28;20247;-71
2023/06/10 08:31:44;;;;;;;8.82;7.25;;;;;;;;;;5017443;28;20036;-72
2023/06/10 08:34:10;;;;;;;9.93;7.38;;;;;;;;;;5023544;28;20029;-72
2023/06/10 08:36:35;;;;;;;8.65;6.95;;;;;;;;;;5024163;28;20034;-71
2023/06/10 08:39:01;;;;;;;11.25;6.60;;;;;;;;;;5025800;28;20775;-71
2023/06/10 08:41:29;;;;;;;11.68;7.40;;;;;;;;;;5025559;28;20124;-72
2023/06/10 08:44:07;;;;;;;7.97;6.43;;;;;;;;;;5026242;28;20423;-71
2023/06/10 08:46:34;;;;;;;8.10;5.95;;;;;;;;;;5023762;28;20406;-72
2023/06/10 08:49:03;;;;;;;9.15;6.40;;;;;;;;;;5025020;28;20032;-72
2023/06/10 08:51:29;;;;;;;7.93;6.68;;;;;;;;;;5024701;28;20025;-72
2023/06/10 08:54:05;;;;;;;10.25;6.35;;;;;;;;;;5025571;28;20025;-71
2023/06/10 08:56:34;;;;;;;6.75;5.55;;;;;;;;;;5024541;28;20124;-72
2023/06/10 08:59:01;;;;;;;8.90;6.63;;;;;;;;;;5026055;28;20103;-71
2023/06/10 09:01:27;;;;;;;8.07;6.50;;;;;;;;;;5025669;28;20060;-72
2023/06/10 09:03:53;;;;;;;7.05;6.00;;;;;;;;;;5025469;28;20088;-71
2023/06/10 09:06:19;;;;;;;6.97;5.68;;;;;;;;;;5028068;28;20025;-73
2023/06/10 09:08:44;;;;;;;8.35;5.70;;;;;;;;;;5025682;28;20033;-71
2023/06/10 09:11:10;;;;;;;7.68;6.32;;;;;;;;;;5019298;28;20033;-71
2023/06/10 09:13:35;;;;;;;8.73;5.65;;;;;;;;;;5017464;28;20029;-71
2023/06/10 09:16:01;;;;;;;8.55;6.60;;;;;;;;;;5025428;28;20116;-72
2023/06/10 09:18:28;;;;;;;9.10;6.55;;;;;;;;;;5026777;28;20034;-72
2023/06/10 09:20:53;;;;;;;10.15;5.70;;;;;;;;;;5030114;28;20033;-71
2023/06/10 09:23:19;;;;;;;8.50;6.13;;;;;;;;;;5037992;28;20035;-71
2023/06/10 09:25:44;;;;;;;7.82;6.50;;;;;;;;;;5028258;28;20029;-71
2023/06/10 09:28:15;;;;;;;7.18;6.10;;;;;;;;;;5025688;28;20129;-71
2023/06/10 09:30:40;;;;;;;9.23;5.70;;;;;;;;;;5024138;28;20380;-72
2023/06/10 09:33:15;;;;;;;8.30;6.53;;;;;;;;;;5030472;28;20537;-72
2023/06/10 09:35:47;;;;;;;9.57;6.22;;;;;;;;;;5024772;28;20029;-73
2023/06/10 09:38:15;;;;;;;7.13;6.43;;;;;;;;;;5019608;28;20029;-71
2023/06/10 09:40:51;;;;;;;7.10;5.93;;;;;;;;;;5018229;28;20025;-72
2023/06/10 09:43:16;;;;;;;11.35;6.43;;;;;;;;;;5018793;28;20029;-71
2023/06/10 09:45:43;;;;;;;7.30;6.30;;;;;;;;;;5024677;28;20029;-72
2023/06/10 09:48:08;;;;;;;13.25;6.80;;;;;;;;;;5024982;28;20074;-72
2023/06/10 09:50:34;;;;;;;7.63;5.82;;;;;;;;;;5023410;28;20037;-72
2023/06/10 09:53:02;;;;;;;8.65;5.68;;;;;;;;;;5023631;28;20029;-71
2023/06/10 09:55:28;;;;;;;8.00;6.20;;;;;;;;;;5025652;28;20111;-71
2023/06/10 09:57:54;;;;;;;7.78;6.00;;;;;;;;;;5023116;28;20025;-71
2023/06/10 10:00:22;;;;;;;10.00;6.68;;;;;;;;;;5010870;28;20623;-71
2023/06/10 10:02:53;;;;;;;11.95;6.15;;;;;;;;;;5029404;28;20064;-71
2023/06/10 10:05:21;;;;;;;7.68;5.93;;;;;;;;;;5029066;28;20057;-71
2023/06/10 10:07:47;;;;;;;6.90;6.03;;;;;;;;;;5028477;28;20098;-72
2023/06/10 10:10:14;;;;;;;9.18;6.20;;;;;;;;;;5029500;28;20499;-71
2023/06/10 10:12:41;;;;;;;7.47;6.38;;;;;;;;;;5024113;28;20029;-73
2023/06/10 10:15:09;;;;;;;7.70;5.85;;;;;;;;;;5025004;28;20545;-73
2023/06/10 10:17:40;;;;;;;6.97;6.03;;;;;;;;;;5014509;28;20041;-73
2023/06/10 10:20:08;;;;;;;8.95;6.22;;;;;;;;;;5028070;28;20028;-72
2023/06/10 10:22:39;;;;;;;7.10;6.20;;;;;;;;;;5025969;28;20041;-73
2023/06/10 10:25:16;;;;;;;9.48;6.72;;;;;;;;;;5017373;28;20036;-73
2023/06/10 10:28:05;;;;;;;8.05;6.65;;;;;;;;;;5017323;28;20045;-73
2023/06/10 10:30:37;;;;;;;9.02;6.60;;;;;;;;;;5023585;28;20084;-73
2023/06/10 10:33:12;;;;;;;7.03;6.28;;;;;;;;;;5014481;28;20527;-73
2023/06/10 10:35:38;;;;;;;10.02;6.43;;;;;;;;;;5027279;28;20056;-73
2023/06/10 10:38:04;;;;;;;7.80;6.25;;;;;;;;;;5025570;28;20042;-73
2023/06/10 10:40:32;;;;;;;8.40;6.85;;;;;;;;;;5012942;28;20044;-74
2023/06/10 10:42:59;;;;;;;8.35;6.53;;;;;;;;;;5022328;28;20029;-75
2023/06/10 10:45:27;;;;;;;8.25;6.05;;;;;;;;;;5019690;28;20049;-75
2023/06/10 10:47:55;;;;;;;8.10;6.45;;;;;;;;;;5031929;28;20060;-74
2023/06/10 10:50:21;;;;;;;7.47;6.30;;;;;;;;;;5034431;28;20017;-73
2023/06/10 10:52:58;;;;;;;7.72;6.50;;;;;;;;;;5033210;28;20021;-74
2023/06/10 10:55:24;;;;;;;6.93;6.18;;;;;;;;;;5026332;28;20029;-74
2023/06/10 10:58:13;;;;;;;7.78;6.05;;;;;;;;;;5028115;28;20029;-74
2023/06/10 11:00:44;;;;;;;9.18;6.30;;;;;;;;;;5015192;28;20029;-73
2023/06/10 11:03:15;;;;;;;7.00;6.30;;;;;;;;;;5012805;28;20049;-73
2023/06/10 11:05:44;;;;;;;7.20;6.00;;;;;;;;;;5019068;28;20600;-73
2023/06/10 11:08:10;;;;;;;8.57;6.03;;;;;;;;;;5027643;28;20053;-74
2023/06/10 11:10:52;;;;;;;7.53;6.13;;;;;;;;;;5020362;28;20033;-74
2023/06/10 11:13:20;;;;;;;7.05;5.55;;;;;;;;;;5021649;28;20026;-73
2023/06/10 11:15:50;;;;;;;11.43;6.30;;;;;;;;;;5014414;28;20025;-74
2023/06/10 11:18:39;;;;;;;6.95;6.10;;;;;;;;;;5012804;28;20715;-74
2023/06/10 11:21:05;;;;;;;7.57;6.25;;;;;;;;;;5019343;28;20022;-73
2023/06/10 11:23:32;;;;;;;8.27;6.72;;;;;;;;;;5028774;28;20546;-73
2023/06/10 11:26:14;;;;;;;7.32;5.78;;;;;;;;;;5025554;28;20159;-75
2023/06/10 11:28:46;;;;;;;6.47;5.80;;;;;;;;;;5025411;28;20025;-75
2023/06/10 11:31:21;;;;;;;7.72;6.60;;;;;;;;;;5027448;28;20029;-75
2023/06/10 11:33:48;;;;;;;6.85;6.15;;;;;;;;;;5027211;28;20080;-73
2023/06/10 11:36:14;;;;;;;8.30;5.65;;;;;;;;;;5024387;28;20560;-73
2023/06/10 11:38:41;;;;;;;6.30;5.53;;;;;;;;;;5026481;28;20265;-73
2023/06/10 11:41:07;;;;;;;6.85;6.15;;;;;;;;;;5025711;28;20022;-73
2023/06/10 11:43:33;;;;;;;7.80;6.32;;;;;;;;;;5026279;28;20418;-73
2023/06/10 11:45:59;;;;;;;6.88;6.10;;;;;;;;;;5024535;28;20029;-73
2023/06/10 11:48:25;;;;;;;7.78;6.13;;;;;;;;;;5025174;28;20095;-73
2023/06/10 11:50:52;;;;;;;7.15;6.30;;;;;;;;;;5023356;28;20435;-73
2023/06/10 11:53:17;;;;;;;9.38;6.20;;;;;;;;;;5026950;28;20033;-73
2023/06/10 11:55:50;;;;;;;7.97;6.30;;;;;;;;;;5022523;28;20040;-73
2023/06/10 11:58:20;;;;;;;12.63;6.03;;;;;;;;;;5023615;28;20522;-73
2023/06/10 12:00:51;;;;;;;7.88;5.90;;;;;;;;;;5013345;28;20594;-73
2023/06/10 12:03:16;;;;;;;7.07;6.38;;;;;;;;;;5026400;28;20127;-73
2023/06/10 12:06:02;;;;;;;7.22;6.20;;;;;;;;;;5025709;28;20061;-73
2023/06/10 12:08:28;;;;;;;8.00;6.13;;;;;;;;;;5027367;28;20036;-73
2023/06/10 12:10:55;;;;;;;6.68;5.97;;;;;;;;;;5026869;28;20029;-73
2023/06/10 12:13:21;;;;;;;7.05;6.38;;;;;;;;;;5014983;28;20033;-73
2023/06/10 12:15:47;;;;;;;7.28;6.47;;;;;;;;;;5030371;28;20033;-73
2023/06/10 12:18:19;;;;;;;6.28;5.50;;;;;;;;;;5026013;28;20426;-73
2023/06/10 12:20:45;;;;;;;7.95;6.15;;;;;;;;;;5030754;28;20028;-73
2023/06/10 12:23:11;;;;;;;6.45;5.70;;;;;;;;;;5022090;28;20018;-73
2023/06/10 12:25:38;;;;;;;8.52;6.57;;;;;;;;;;5024863;28;20032;-75
2023/06/10 12:28:04;;;;;;;8.55;6.35;;;;;;;;;;5026237;28;20518;-75
2023/06/10 12:30:29;;;;;;;7.72;6.25;;;;;;;;;;5024260;28;20037;-75
2023/06/10 12:32:55;;;;;;;6.97;6.28;;;;;;;;;;5020856;28;20029;-75
2023/06/10 12:35:24;;;;;;;9.25;6.65;;;;;;;;;;5026090;28;20087;-73
2023/06/10 12:38:08;;;;;;;9.43;6.28;;;;;;;;;;5026602;28;20167;-73
2023/06/10 12:40:36;;;;;;;8.18;6.82;;;;;;;;;;5025205;28;20025;-73
2023/06/10 12:43:02;;;;;;;7.18;6.32;;;;;;;;;;5024291;28;20410;-73
2023/06/10 12:45:35;;;;;;;7.03;6.32;;;;;;;;;;5020761;28;20022;-75
2023/06/10 12:48:12;;;;;;;9.00;6.68;;;;;;;;;;5019764;28;20560;-73
2023/06/10 12:50:41;;;;;;;7.60;6.70;;;;;;;;;;5025369;28;20064;-74
2023/06/10 12:53:08;;;;;;;7.35;6.63;;;;;;;;;;5025698;28;20747;-74
2023/06/10 12:55:33;;;;;;;9.05;6.65;;;;;;;;;;5025694;28;20071;-74
2023/06/10 12:58:00;;;;;;;6.85;6.13;;;;;;;;;;5024394;28;20029;-75
2023/06/10 13:00:25;;;;;;;7.75;6.65;;;;;;;;;;5025509;28;20120;-74
2023/06/10 13:02:54;;;;;;;9.50;6.47;;;;;;;;;;5025227;28;20141;-74
2023/06/10 13:05:20;;;;;;;7.22;6.28;;;;;;;;;;5024927;28;20032;-73
2023/06/10 13:07:46;;;;;;;7.90;6.15;;;;;;;;;;5024920;28;20751;-73
2023/06/10 13:10:13;;;;;;;7.65;6.40;;;;;;;;;;5015169;28;20074;-73
2023/06/10 13:12:39;;;;;;;7.15;5.68;;;;;;;;;;5015779;28;20487;-73
2023/06/10 13:15:05;;;;;;;8.40;6.60;;;;;;;;;;5015108;28;20020;-72
2023/06/10 13:17:30;;;;;;;10.65;6.32;;;;;;;;;;5016324;28;20026;-74
2023/06/10 13:19:55;;;;;;;6.80;6.10;;;;;;;;;;5014179;28;20628;-73
2023/06/10 13:22:21;;;;;;;6.85;6.10;;;;;;;;;;5016128;28;20057;-73
2023/06/10 13:24:46;;;;;;;9.40;6.15;;;;;;;;;;5016514;28;20028;-73
2023/06/10 13:27:13;;;;;;;8.88;6.50;;;;;;;;;;5017042;28;20049;-73
2023/06/10 13:29:39;;;;;;;7.68;6.22;;;;;;;;;;5015629;28;20104;-73
2023/06/10 13:32:05;;;;;;;6.75;6.05;;;;;;;;;;5019881;28;20117;-73
2023/06/10 13:34:30;;;;;;;6.70;6.00;;;;;;;;;;5016944;28;20026;-73
2023/06/10 13:36:55;;;;;;;7.10;6.40;;;;;;;;;;5016038;28;20033;-73
2023/06/10 13:39:21;;;;;;;8.68;6.28;;;;;;;;;;5019743;28;20113;-73
2023/06/10 13:41:46;;;;;;;7.03;6.32;;;;;;;;;;5025535;28;20108;-73
2023/06/10 13:44:12;;;;;;;7.60;6.43;;;;;;;;;;5027130;28;20041;-73
2023/06/10 13:46:37;;;;;;;7.50;6.80;;;;;;;;;;5031825;28;20025;-73
2023/06/10 13:49:02;;;;;;;8.18;7.38;;;;;;;;;;5038840;28;20053;-73
2023/06/10 13:51:28;;;;;;;7.82;6.97;;;;;;;;;;5031985;28;20112;-73
2023/06/10 13:53:53;;;;;;;7.93;7.13;;;;;;;;;;5025606;28;20076;-73
2023/06/10 13:56:19;;;;;;;8.05;7.25;;;;;;;;;;5025129;28;20052;-75
2023/06/10 13:58:45;;;;;;;11.98;7.07;;;;;;;;;;5024831;28;20026;-73
2023/06/10 14:01:10;;;;;;;7.38;6.65;;;;;;;;;;5024328;28;20029;-73
2023/06/10 14:03:35;;;;;;;8.05;6.90;;;;;;;;;;5023839;28;20123;-74
2023/06/10 14:06:01;;;;;;;9.30;6.78;;;;;;;;;;5023175;28;20063;-74
2023/06/10 14:08:27;;;;;;;9.25;7.30;;;;;;;;;;5023824;28;20036;-74
2023/06/10 14:10:52;;;;;;;7.72;6.93;;;;;;;;;;5024046;28;20090;-73
2023/06/10 14:13:18;;;;;;;7.10;6.40;;;;;;;;;;5024247;28;20029;-74
2023/06/10 14:15:44;;;;;;;7.20;6.50;;;;;;;;;;5023094;28;20567;-73
2023/06/10 14:18:10;;;;;;;8.57;6.68;;;;;;;;;;5023428;28;20029;-73
2023/06/10 14:20:36;;;;;;;8.20;6.43;;;;;;;;;;5023679;28;20033;-73
2023/06/10 14:23:01;;;;;;;9.48;6.55;;;;;;;;;;5022522;28;20143;-73
2023/06/10 14:25:27;;;;;;;9.95;7.32;;;;;;;;;;5021611;28;20026;-73
2023/06/10 14:27:52;;;;;;;8.48;7.68;;;;;;;;;;5021626;28;20481;-73
2023/06/10 14:30:17;;;;;;;9.65;8.07;;;;;;;;;;5021217;28;20539;-73
2023/06/10 14:32:43;;;;;;;10.60;8.27;;;;;;;;;;5021910;28;20033;-73
2023/06/10 14:35:09;;;;;;;8.63;7.82;;;;;;;;;;5022695;28;20029;-73